Time;durP1;ratioP1;P1;durP2;ratioP2;P2;SDS_P1;SDS_P2;PMS_P1;PMS_P2;Temp;Humidity;BMP_temperature;BMP_pressure;BME280_temperature;BME280_humidity;BME280_pressure;Samples;Min_cycle;Max_cycle;Signal;HPM_P1;HPM_P2
2023/09/23 00:01:05;;;;;;;4.33;3.53;;;16.00;99.90;;;;;;5002603;28;20418;-53
2023/09/23 00:03:33;;;;;;;4.80;3.40;;;16.00;99.90;;;;;;5002533;28;20452;-55
2023/09/23 00:06:00;;;;;;;4.27;3.87;;;16.00;99.90;;;;;;5002485;28;20446;-52
2023/09/23 00:08:27;;;;;;;5.77;3.40;;;16.00;99.90;;;;;;5002599;28;20465;-53
2023/09/23 00:10:54;;;;;;;3.73;3.43;;;16.00;99.90;;;;;;5002453;28;20443;-57
2023/09/23 00:13:21;;;;;;;5.83;3.40;;;16.00;99.90;;;;;;5002300;28;20416;-50
2023/09/23 00:15:50;;;;;;;4.53;3.30;;;15.90;99.90;;;;;;5002226;28;20490;-55
2023/09/23 00:18:18;;;;;;;8.63;3.80;;;15.90;99.90;;;;;;5002312;28;20487;-55
2023/09/23 00:20:46;;;;;;;4.20;2.70;;;15.90;99.90;;;;;;5002208;28;20422;-52
2023/09/23 00:23:13;;;;;;;3.40;3.07;;;15.90;99.90;;;;;;5002273;28;20416;-52
2023/09/23 00:25:46;;;;;;;7.60;3.00;;;15.90;99.90;;;;;;5002026;28;20411;-53
2023/09/23 00:28:14;;;;;;;4.07;3.17;;;15.70;99.90;;;;;;5002031;28;20478;-57
2023/09/23 00:30:42;;;;;;;5.50;3.33;;;15.70;99.90;;;;;;5002115;28;20423;-55
2023/09/23 00:33:16;;;;;;;3.23;2.90;;;15.90;99.90;;;;;;5001782;28;20442;-52
2023/09/23 00:35:44;;;;;;;4.63;3.50;;;15.90;99.90;;;;;;5001794;28;20415;-51
2023/09/23 00:38:12;;;;;;;4.83;3.23;;;15.80;99.90;;;;;;5001756;28;20460;-55
2023/09/23 00:40:39;;;;;;;5.07;3.40;;;15.80;99.90;;;;;;5001903;28;20427;-57
2023/09/23 00:43:11;;;;;;;5.53;3.83;;;15.80;99.90;;;;;;5001866;28;20415;-57
2023/09/23 00:45:39;;;;;;;4.00;3.40;;;15.80;99.90;;;;;;5001706;28;20458;-51
2023/09/23 00:48:08;;;;;;;6.17;3.03;;;15.80;99.90;;;;;;5001623;28;20458;-54
2023/09/23 00:50:36;;;;;;;6.67;3.90;;;15.70;99.90;;;;;;5001572;28;20518;-50
2023/09/23 00:53:04;;;;;;;4.57;3.73;;;15.70;99.90;;;;;;5001594;28;20423;-51
2023/09/23 00:55:40;;;;;;;3.83;3.03;;;15.70;99.90;;;;;;5001603;28;20470;-54
2023/09/23 00:58:07;;;;;;;6.03;3.40;;;15.70;99.90;;;;;;5001604;28;20462;-53
2023/09/23 01:00:37;;;;;;;5.43;3.80;;;15.70;99.90;;;;;;5001228;28;20426;-54
2023/09/23 01:03:04;;;;;;;3.77;3.30;;;15.50;99.90;;;;;;5001408;28;20414;-56
2023/09/23 01:05:33;;;;;;;4.07;3.07;;;15.70;99.90;;;;;;5001328;28;20423;-55
2023/09/23 01:08:04;;;;;;;4.20;3.27;;;15.70;99.90;;;;;;5001164;28;20481;-56
2023/09/23 01:10:31;;;;;;;4.30;3.43;;;15.70;99.90;;;;;;5001456;28;20420;-56
2023/09/23 01:12:59;;;;;;;4.13;2.83;;;15.70;99.90;;;;;;5001241;28;20441;-56
2023/09/23 01:15:28;;;;;;;2.90;2.50;;;15.70;99.90;;;;;;5001313;28;20446;-53
2023/09/23 01:17:56;;;;;;;3.10;2.40;;;15.70;99.90;;;;;;5001238;28;20447;-56
2023/09/23 01:20:26;;;;;;;2.87;2.50;;;15.60;99.90;;;;;;5001280;28;20412;-54
2023/09/23 01:22:56;;;;;;;3.40;2.90;;;15.60;99.90;;;;;;5001198;28;20411;-56
2023/09/23 01:25:24;;;;;;;4.87;2.80;;;;;;;;;;5001068;28;20419;-56
2023/09/23 01:27:51;;;;;;;4.70;2.47;;;15.60;99.90;;;;;;5000939;28;20474;-49
2023/09/23 01:30:21;;;;;;;4.93;3.10;;;15.60;99.90;;;;;;5001053;28;20459;-57
2023/09/23 01:32:51;;;;;;;3.40;2.63;;;15.60;99.90;;;;;;5000881;28;20487;-55
2023/09/23 01:35:20;;;;;;;3.07;2.30;;;15.60;99.90;;;;;;5000988;28;20442;-55
2023/09/23 01:37:48;;;;;;;3.27;2.37;;;15.50;99.90;;;;;;5000872;28;20443;-56
2023/09/23 01:40:17;;;;;;;3.37;2.80;;;15.60;99.90;;;;;;5000598;28;20447;-56
2023/09/23 01:42:44;;;;;;;5.70;2.97;;;15.50;99.90;;;;;;5000606;28;20420;-54
2023/09/23 01:45:13;;;;;;;5.00;2.43;;;15.60;99.90;;;;;;5000497;28;20422;-52
2023/09/23 01:47:40;;;;;;;3.87;2.77;;;15.50;99.90;;;;;;5000279;28;20449;-55
2023/09/23 01:50:10;;;;;;;3.83;2.57;;;15.50;99.90;;;;;;5000518;28;20439;-53
2023/09/23 01:52:37;;;;;;;4.30;2.20;;;;;;;;;;5000406;28;20506;-54
2023/09/23 01:55:05;;;;;;;3.80;2.50;;;15.40;99.90;;;;;;5000414;28;20544;-57
2023/09/23 01:57:34;;;;;;;4.20;2.53;;;15.40;99.90;;;;;;5000378;28;20518;-54
2023/09/23 02:00:03;;;;;;;3.53;2.57;;;15.40;99.90;;;;;;5000388;28;20432;-54
2023/09/23 02:02:31;;;;;;;5.60;3.63;;;15.40;99.90;;;;;;5000513;28;20443;-49
2023/09/23 02:04:59;;;;;;;4.27;2.60;;;15.30;99.90;;;;;;5000421;28;20434;-56
2023/09/23 02:07:26;;;;;;;2.87;2.60;;;15.30;99.90;;;;;;5000112;28;20467;-51
2023/09/23 02:09:53;;;;;;;5.20;3.23;;;15.30;99.90;;;;;;5000148;28;20453;-53
2023/09/23 02:12:23;;;;;;;3.93;1.87;;;15.30;99.90;;;;;;5000102;28;20438;-57
2023/09/23 02:14:53;;;;;;;3.60;2.47;;;15.30;99.90;;;;;;5000092;28;20446;-55
2023/09/23 02:17:20;;;;;;;3.00;1.90;;;15.30;99.90;;;;;;5000218;28;20418;-56
2023/09/23 02:19:50;;;;;;;3.00;2.33;;;15.30;99.90;;;;;;4999878;28;20443;-56
2023/09/23 02:22:19;;;;;;;3.13;2.30;;;15.30;99.90;;;;;;4999976;28;20455;-56
2023/09/23 02:24:47;;;;;;;5.70;2.27;;;15.30;99.90;;;;;;4999796;28;20435;-54
2023/09/23 02:27:14;;;;;;;2.43;2.23;;;15.20;99.90;;;;;;4999967;28;20474;-53
2023/09/23 02:29:41;;;;;;;3.63;2.60;;;15.20;99.90;;;;;;4999905;28;20425;-53
2023/09/23 02:32:10;;;;;;;3.20;2.30;;;15.20;99.90;;;;;;4999884;28;20415;-51
2023/09/23 02:34:39;;;;;;;5.53;3.53;;;15.20;99.90;;;;;;4999788;28;20427;-58
2023/09/23 02:37:06;;;;;;;2.20;2.00;;;15.20;99.90;;;;;;4999617;28;20514;-58
2023/09/23 02:39:33;;;;;;;3.20;2.57;;;15.20;99.90;;;;;;4999481;28;20411;-55
2023/09/23 02:42:04;;;;;;;2.40;2.10;;;15.10;99.90;;;;;;4999605;28;20522;-56
2023/09/23 02:44:31;;;;;;;2.90;2.07;;;15.10;99.90;;;;;;4999589;28;20431;-57
2023/09/23 02:46:58;;;;;;;3.63;2.60;;;15.00;99.90;;;;;;4999363;28;20467;-54
2023/09/23 02:49:26;;;;;;;4.00;2.60;;;15.00;99.90;;;;;;4999645;28;20418;-55
2023/09/23 02:51:53;;;;;;;2.80;2.07;;;14.90;99.90;;;;;;4999692;28;20419;-57
2023/09/23 02:54:20;;;;;;;7.53;2.30;;;14.90;99.90;;;;;;4999691;28;20423;-50
2023/09/23 02:56:48;;;;;;;3.33;2.17;;;14.90;99.90;;;;;;4999502;28;20431;-56
2023/09/23 02:59:18;;;;;;;1.93;1.73;;;14.80;99.90;;;;;;4998725;28;20439;-51
2023/09/23 03:01:48;;;;;;;2.57;2.00;;;14.60;99.90;;;;;;4999610;28;20420;-58
2023/09/23 03:04:18;;;;;;;2.83;2.40;;;14.50;99.90;;;;;;4999579;28;20446;-57
2023/09/23 03:06:50;;;;;;;2.00;1.80;;;14.80;99.90;;;;;;4999467;28;20431;-52
2023/09/23 03:09:20;;;;;;;5.00;2.00;;;14.70;99.90;;;;;;4999439;28;20509;-56
2023/09/23 03:11:53;;;;;;;2.10;1.90;;;14.70;99.90;;;;;;4999531;28;20469;-54
2023/09/23 03:14:23;;;;;;;4.83;2.37;;;14.70;99.90;;;;;;4999452;28;20463;-53
2023/09/23 03:16:51;;;;;;;2.07;1.70;;;14.70;99.90;;;;;;4999499;28;20467;-52
2023/09/23 03:19:24;;;;;;;4.17;2.10;;;14.90;99.90;;;;;;4999351;28;20473;-54
2023/09/23 03:21:56;;;;;;;2.57;2.00;;;14.60;99.90;;;;;;4999465;28;20439;-53
2023/09/23 03:24:25;;;;;;;5.63;2.20;;;14.60;99.90;;;;;;4999238;28;20447;-54
2023/09/23 03:26:53;;;;;;;4.80;2.13;;;14.60;99.90;;;;;;4999418;28;20442;-53
2023/09/23 03:29:20;;;;;;;3.07;2.10;;;14.70;99.90;;;;;;4999295;28;20486;-57
2023/09/23 03:31:46;;;;;;;2.97;2.30;;;14.70;99.90;;;;;;4999390;28;20414;-51
2023/09/23 03:34:14;;;;;;;2.60;1.70;;;14.70;99.90;;;;;;4999356;28;20462;-50
2023/09/23 03:36:41;;;;;;;3.00;2.20;;;14.70;99.90;;;;;;4999253;28;20419;-55
2023/09/23 03:39:09;;;;;;;3.73;2.27;;;14.70;99.90;;;;;;4999310;28;20455;-56
2023/09/23 03:41:37;;;;;;;10.53;5.67;;;14.70;99.90;;;;;;4999066;28;20427;-52
2023/09/23 03:44:05;;;;;;;9.77;2.20;;;14.70;99.90;;;;;;4999204;28;20459;-55
2023/09/23 03:46:33;;;;;;;1.80;1.63;;;;;;;;;;4999203;28;20403;-53
2023/09/23 04:02:00;;;;;;;4.43;1.50;;;14.80;99.90;;;;;;5585475;23;20545;-68
2023/09/23 04:04:48;;;;;;;5.53;2.13;;;14.70;99.90;;;;;;4974055;28;20467;-68
2023/09/23 04:07:16;;;;;;;2.07;1.83;;;14.70;99.90;;;;;;4974122;28;20518;-68
2023/09/23 04:09:43;;;;;;;2.40;1.77;;;14.70;99.90;;;;;;4976113;28;20427;-68
2023/09/23 04:12:23;;;;;;;1.80;1.40;;;14.60;99.90;;;;;;4977639;28;20919;-67
2023/09/23 04:22:50;;;;;;;1.63;1.53;;;14.60;99.90;;;;;;5017376;23;20484;-69
2023/09/23 04:25:48;;;;;;;2.80;1.50;;;14.60;99.90;;;;;;4998978;28;20962;-69
2023/09/23 04:28:15;;;;;;;2.00;1.70;;;14.60;99.90;;;;;;4998124;28;20474;-68
2023/09/23 04:30:42;;;;;;;1.73;1.10;;;14.50;99.90;;;;;;4998571;28;20430;-68
2023/09/23 04:33:09;;;;;;;2.07;1.47;;;14.50;99.90;;;;;;4998959;28;20441;-68
2023/09/23 04:35:47;;;;;;;2.27;1.40;;;14.50;99.90;;;;;;4998397;28;20474;-68
2023/09/23 04:38:17;;;;;;;2.00;1.43;;;14.50;99.90;;;;;;4999255;28;20470;-68
2023/09/23 04:40:45;;;;;;;1.43;1.30;;;14.60;99.90;;;;;;4999005;28;20434;-68
2023/09/23 04:43:12;;;;;;;1.83;1.47;;;14.50;99.90;;;;;;4999103;28;20442;-68
2023/09/23 04:45:41;;;;;;;1.80;1.50;;;14.50;99.90;;;;;;4999260;28;20520;-69
2023/09/23 04:48:08;;;;;;;2.37;1.43;;;14.50;99.90;;;;;;4999371;28;20756;-69
2023/09/23 04:50:38;;;;;;;4.40;1.57;;;14.50;99.90;;;;;;4998727;28;20426;-69
2023/09/23 04:53:22;;;;;;;3.47;1.53;;;14.40;99.90;;;;;;4998797;28;20430;-69
2023/09/23 04:59:12;;;;;;;3.00;1.00;;;14.40;99.90;;;;;;4999067;28;20582;-68
2023/09/23 05:01:45;;;;;;;2.30;1.93;;;14.40;99.90;;;;;;4999064;28;20431;-68
2023/09/23 05:04:12;;;;;;;1.77;1.13;;;14.50;99.90;;;;;;4999530;28;20784;-68
2023/09/23 05:06:39;;;;;;;6.73;1.50;;;14.40;99.90;;;;;;4998699;28;20973;-68
2023/09/23 05:09:11;;;;;;;1.80;1.63;;;14.30;99.90;;;;;;4997463;28;20550;-68
2023/09/23 05:11:38;;;;;;;2.20;1.40;;;14.30;99.90;;;;;;4998162;28;20430;-68
2023/09/23 05:14:06;;;;;;;2.57;2.10;;;;;;;;;;4998320;28;20473;-68
2023/09/23 05:17:04;;;;;;;2.23;1.97;;;14.30;99.90;;;;;;4998350;28;20434;-68
2023/09/23 05:19:31;;;;;;;2.80;2.00;;;14.30;99.90;;;;;;4999901;28;20482;-68
2023/09/23 05:21:58;;;;;;;4.80;1.87;;;13.60;99.90;;;;;;5000014;28;20473;-68
2023/09/23 05:24:47;;;;;;;9.73;1.40;;;14.30;99.90;;;;;;5001557;28;20514;-68
2023/09/23 05:27:14;;;;;;;1.97;1.77;;;14.30;99.90;;;;;;4999965;28;20426;-68
2023/09/23 05:29:43;;;;;;;1.40;1.30;;;14.30;99.90;;;;;;4999086;28;20422;-69
2023/09/23 05:32:38;;;;;;;4.70;1.60;;;14.30;99.90;;;;;;4998705;28;20430;-69
2023/09/23 05:35:09;;;;;;;3.77;1.90;;;14.30;99.90;;;;;;4997435;28;20490;-69
2023/09/23 05:37:36;;;;;;;3.37;1.57;;;14.20;99.90;;;;;;4997727;28;20441;-69
2023/09/23 05:40:09;;;;;;;2.73;1.40;;;14.20;99.90;;;;;;4997697;28;20466;-69
2023/09/23 05:42:50;;;;;;;6.17;2.27;;;14.20;99.90;;;;;;4998599;28;20437;-67
2023/09/23 05:45:18;;;;;;;2.90;1.73;;;14.20;99.90;;;;;;4997761;28;20466;-69
2023/09/23 05:47:46;;;;;;;3.83;1.60;;;14.20;99.90;;;;;;4997933;28;20465;-68
2023/09/23 05:50:20;;;;;;;11.53;5.20;;;14.20;99.90;;;;;;4997349;28;20442;-69
2023/09/23 05:52:47;;;;;;;7.00;2.57;;;14.20;99.90;;;;;;4997378;28;20434;-67
2023/09/23 05:55:16;;;;;;;6.20;2.90;;;14.20;99.90;;;;;;4996770;28;20609;-68
2023/09/23 05:57:45;;;;;;;5.00;2.73;;;14.20;99.90;;;;;;4996779;28;20912;-68
2023/09/23 06:00:16;;;;;;;6.00;1.40;;;14.20;99.90;;;;;;4997413;28;20545;-70
2023/09/23 06:02:45;;;;;;;3.63;1.40;;;14.20;99.90;;;;;;4994820;28;20457;-67
2023/09/23 06:05:13;;;;;;;3.10;1.90;;;14.10;99.90;;;;;;4998317;28;20469;-68
2023/09/23 06:11:04;;;;;;;1.57;1.20;;;14.20;99.90;;;;;;4998715;28;20397;-69
2023/09/23 06:16:53;;;;;;;2.33;1.50;;;14.10;99.90;;;;;;4997114;28;20389;-68
2023/09/23 06:19:20;;;;;;;1.67;1.13;;;14.10;99.90;;;;;;4996572;28;20505;-69
2023/09/23 06:22:09;;;;;;;1.33;1.07;;;14.30;99.90;;;;;;4994002;28;20454;-68
2023/09/23 06:24:36;;;;;;;3.93;1.23;;;14.20;99.90;;;;;;4995639;28;20532;-69
2023/09/23 06:27:04;;;;;;;1.70;1.10;;;14.20;99.90;;;;;;4996073;28;20422;-69
2023/09/23 06:29:33;;;;;;;2.23;1.40;;;14.20;99.90;;;;;;4996743;28;20427;-67
2023/09/23 06:32:29;;;;;;;1.50;1.13;;;14.30;99.90;;;;;;4996990;28;20537;-69
2023/09/23 06:34:56;;;;;;;2.80;1.43;;;14.30;99.90;;;;;;4996048;28;20552;-69
2023/09/23 06:37:24;;;;;;;2.83;2.10;;;14.30;99.90;;;;;;4995664;28;20513;-68
2023/09/23 06:39:54;;;;;;;1.57;1.37;;;14.30;99.90;;;;;;4995662;28;20470;-68
2023/09/23 06:42:38;;;;;;;2.43;1.80;;;14.40;99.90;;;;;;4995507;28;20478;-68
2023/09/23 06:45:09;;;;;;;1.80;1.50;;;14.40;99.90;;;;;;4995221;28;20909;-69
2023/09/23 06:47:36;;;;;;;2.97;1.40;;;14.40;99.90;;;;;;4995618;28;20439;-69
2023/09/23 06:50:11;;;;;;;1.27;1.17;;;14.50;99.90;;;;;;4995538;28;20426;-68
2023/09/23 06:53:00;;;;;;;5.53;1.20;;;14.50;99.90;;;;;;4995866;28;20474;-68
2023/09/23 06:55:28;;;;;;;1.97;1.50;;;14.60;99.90;;;;;;4995533;28;20517;-68
2023/09/23 06:57:56;;;;;;;2.83;1.20;;;14.60;99.90;;;;;;4995375;28;20529;-68
2023/09/23 07:01:21;;;;;;;2.70;1.37;;;14.60;99.90;;;;;;4995220;28;20478;-68
2023/09/23 07:03:48;;;;;;;1.57;1.20;;;14.70;99.90;;;;;;4995515;28;20485;-69
2023/09/23 07:06:15;;;;;;;2.50;1.10;;;14.70;99.90;;;;;;4995299;28;20458;-69
2023/09/23 07:09:06;;;;;;;1.27;1.17;;;14.70;99.90;;;;;;4995238;28;20426;-69
2023/09/23 07:11:42;;;;;;;1.83;1.50;;;14.80;99.90;;;;;;4997295;28;20480;-68
2023/09/23 07:14:10;;;;;;;2.50;1.20;;;14.90;99.90;;;;;;4996230;28;20409;-69
2023/09/23 07:16:37;;;;;;;5.60;1.10;;;14.80;99.90;;;;;;4996344;28;20472;-68
2023/09/23 07:19:25;;;;;;;2.40;1.30;;;14.90;99.90;;;;;;4996460;28;20501;-69
2023/09/23 07:21:58;;;;;;;3.10;1.20;;;14.90;99.90;;;;;;4998018;28;20466;-69
2023/09/23 07:24:44;;;;;;;1.97;1.07;;;15.20;99.90;;;;;;4996065;28;20485;-69
2023/09/23 07:27:19;;;;;;;2.87;1.27;;;15.10;99.90;;;;;;4995606;28;20431;-69
2023/09/23 07:29:47;;;;;;;1.50;1.10;;;15.20;99.90;;;;;;4996369;28;20448;-68
2023/09/23 07:32:14;;;;;;;1.37;1.00;;;15.20;99.90;;;;;;4994171;28;20446;-69
2023/09/23 07:35:04;;;;;;;2.30;0.97;;;15.20;99.90;;;;;;4995345;28;20540;-68
2023/09/23 07:37:50;;;;;;;1.30;1.13;;;15.30;99.90;;;;;;4995623;28;20870;-69
2023/09/23 07:40:18;;;;;;;1.57;1.03;;;15.40;99.90;;;;;;4994884;28;20502;-68
2023/09/23 07:42:45;;;;;;;1.50;1.00;;;15.50;99.90;;;;;;4995079;28;20857;-69
2023/09/23 07:45:20;;;;;;;1.00;0.90;;;15.60;99.90;;;;;;4998529;28;20465;-69
2023/09/23 07:48:10;;;;;;;3.33;1.90;;;15.70;99.90;;;;;;5000532;28;20835;-69
2023/09/23 07:50:36;;;;;;;2.50;2.30;;;15.80;99.90;;;;;;4999666;28;20434;-69
2023/09/23 07:53:04;;;;;;;2.07;1.20;;;15.80;99.90;;;;;;4998667;28;20493;-69
2023/09/23 07:55:41;;;;;;;1.87;1.47;;;15.90;99.90;;;;;;4999345;28;20490;-69
2023/09/23 07:58:11;;;;;;;1.83;1.10;;;16.00;99.90;;;;;;4998539;28;20488;-69
2023/09/23 08:00:41;;;;;;;1.80;0.93;;;16.30;99.90;;;;;;4999669;28;20462;-69
2023/09/23 08:03:09;;;;;;;1.50;1.27;;;16.20;99.90;;;;;;5000250;28;20442;-69
2023/09/23 08:05:58;;;;;;;1.63;1.40;;;16.30;99.90;;;;;;4999796;28;20516;-70
2023/09/23 08:08:27;;;;;;;3.07;1.60;;;16.40;99.90;;;;;;4999882;28;20426;-69
2023/09/23 08:10:54;;;;;;;1.60;1.17;;;16.60;99.90;;;;;;4998995;28;20508;-68
2023/09/23 08:13:40;;;;;;;1.67;1.03;;;16.70;99.90;;;;;;4999200;28;20426;-69
2023/09/23 08:16:09;;;;;;;1.53;1.10;;;16.80;99.90;;;;;;4996468;28;20469;-68
2023/09/23 08:18:36;;;;;;;1.73;1.20;;;16.90;99.90;;;;;;4998557;28;20430;-69
2023/09/23 08:21:11;;;;;;;1.50;1.03;;;17.00;99.90;;;;;;4999033;28;20419;-69
2023/09/23 08:23:38;;;;;;;2.27;1.50;;;17.20;99.90;;;;;;4997600;28;20477;-69
2023/09/23 08:26:23;;;;;;;2.10;1.20;;;17.10;99.90;;;;;;4998023;28;20501;-69
2023/09/23 08:29:08;;;;;;;1.93;1.40;;;17.00;99.90;;;;;;4999176;28;20485;-68
2023/09/23 08:31:36;;;;;;;1.60;1.10;;;16.90;99.90;;;;;;4998806;28;20950;-69
2023/09/23 08:34:09;;;;;;;3.03;1.17;;;16.70;99.90;;;;;;4997968;28;20426;-69
2023/09/23 08:36:51;;;;;;;2.63;1.30;;;16.60;99.90;;;;;;4998950;28;20465;-70
2023/09/23 08:39:19;;;;;;;2.70;1.27;;;16.90;99.90;;;;;;4999303;28;20826;-68
2023/09/23 08:41:52;;;;;;;1.23;1.07;;;16.80;99.90;;;;;;4999875;28;20896;-70
2023/09/23 08:44:34;;;;;;;5.43;1.20;;;17.30;99.90;;;;;;4999279;28;20426;-69
2023/09/23 08:47:02;;;;;;;3.10;1.50;;;17.50;99.90;;;;;;4999251;28;20517;-69
2023/09/23 08:49:30;;;;;;;1.47;1.30;;;17.40;99.90;;;;;;4999361;28;20426;-68
2023/09/23 08:51:58;;;;;;;1.33;1.07;;;17.20;99.90;;;;;;4999721;28;20437;-68
2023/09/23 09:12:35;;;;;;;1.87;1.27;;;17.70;99.90;;;;;;4822537;26;20485;-68
2023/09/23 09:15:04;;;;;;;4.50;3.10;;;17.30;99.90;;;;;;4999692;28;20453;-69
2023/09/23 09:17:33;;;;;;;1.50;1.30;;;17.60;99.90;;;;;;4998708;28;20453;-69
2023/09/23 09:20:06;;;;;;;1.60;1.30;;;17.50;99.90;;;;;;4999368;28;21001;-68
2023/09/23 09:22:33;;;;;;;1.50;1.40;;;17.60;99.90;;;;;;4999274;28;20458;-69
2023/09/23 09:30:13;;;;;;;1.40;1.30;;;18.20;99.90;;;;;;4276403;26;20482;-69
2023/09/23 09:32:44;;;;;;;1.77;1.30;;;18.40;99.90;;;;;;4976312;28;20517;-69
2023/09/23 09:35:16;;;;;;;1.67;1.17;;;18.30;99.90;;;;;;4976329;28;20471;-70
2023/09/23 09:38:06;;;;;;;1.20;1.07;;;18.00;99.90;;;;;;4976396;28;20427;-69
2023/09/23 09:40:33;;;;;;;1.50;1.10;;;17.60;99.90;;;;;;4975750;28;20479;-69
2023/09/23 09:43:01;;;;;;;1.43;1.23;;;17.70;99.90;;;;;;4976343;28;20435;-70
2023/09/23 09:45:49;;;;;;;1.60;1.10;;;17.60;99.90;;;;;;4974875;28;20471;-68
2023/09/23 09:48:30;;;;;;;2.03;1.30;;;17.60;99.90;;;;;;4976344;28;20427;-68
2023/09/23 09:50:57;;;;;;;4.07;2.40;;;17.60;99.90;;;;;;4976398;28;20967;-69
2023/09/23 09:53:26;;;;;;;4.80;2.37;;;17.70;99.90;;;;;;4975806;28;20474;-70
2023/09/23 09:56:20;;;;;;;4.23;1.80;;;17.50;99.90;;;;;;4976290;28;20514;-69
2023/09/23 10:02:13;;;;;;;1.70;1.23;;;17.90;99.90;;;;;;4976013;28;20442;-69
2023/09/23 10:04:46;;;;;;;1.93;1.60;;;18.50;99.90;;;;;;4975563;28;20488;-68
2023/09/23 10:07:14;;;;;;;2.43;2.23;;;19.00;99.90;;;;;;4975458;28;20465;-68
2023/09/23 10:10:28;;;;;;;2.03;1.40;;;19.10;99.90;;;;;;4975952;28;20423;-68
2023/09/23 10:12:59;;;;;;;2.50;1.93;;;18.90;99.90;;;;;;4976019;28;20489;-69
2023/09/23 10:15:28;;;;;;;2.70;1.50;;;18.50;99.90;;;;;;4975851;28;20463;-68
2023/09/23 10:17:57;;;;;;;2.27;1.53;;;18.30;99.90;;;;;;4975728;28;20462;-69
2023/09/23 10:20:48;;;;;;;2.10;1.87;;;17.70;99.90;;;;;;4975888;28;20471;-69
2023/09/23 10:23:17;;;;;;;2.90;1.80;;;17.90;99.90;;;;;;4975705;28;20533;-69
2023/09/23 10:25:46;;;;;;;2.77;2.20;;;18.20;99.90;;;;;;4975111;28;20466;-69
2023/09/23 10:28:28;;;;;;;2.50;1.90;;;18.70;99.90;;;;;;4975520;28;20427;-69
2023/09/23 10:31:09;;;;;;;2.43;2.23;;;19.70;99.90;;;;;;4975632;28;20443;-69
2023/09/23 10:33:38;;;;;;;1.63;1.53;;;20.60;99.90;;;;;;4975359;28;20431;-69
2023/09/23 10:36:07;;;;;;;2.13;1.93;;;20.50;99.90;;;;;;4975763;28;20471;-69
2023/09/23 10:38:45;;;;;;;1.97;1.80;;;20.30;99.90;;;;;;4975342;28;20434;-69
2023/09/23 10:41:12;;;;;;;6.30;4.00;;;19.90;99.90;;;;;;4975477;28;20466;-68
2023/09/23 10:43:41;;;;;;;4.00;2.60;;;20.10;99.90;;;;;;4975398;28;20459;-70
2023/09/23 10:46:15;;;;;;;3.60;2.23;;;20.20;99.90;;;;;;4975539;28;20494;-68
2023/09/23 10:48:45;;;;;;;2.13;1.93;;;20.50;99.90;;;;;;4975146;28;20423;-69
2023/09/23 10:51:12;;;;;;;2.57;1.87;;;20.60;99.90;;;;;;4976137;28;20466;-69
2023/09/23 10:53:46;;;;;;;2.27;2.07;;;21.30;99.90;;;;;;4975879;28;20462;-68
2023/09/23 10:56:13;;;;;;;1.70;1.33;;;21.30;99.90;;;;;;4976019;28;20431;-69
2023/09/23 10:58:40;;;;;;;2.20;2.00;;;20.90;99.90;;;;;;4975859;28;20931;-69
2023/09/23 11:01:49;;;;;;;1.70;1.30;;;20.00;99.90;;;;;;4975557;28;20558;-69
2023/09/23 11:04:32;;;;;;;1.93;1.73;;;20.00;99.90;;;;;;4974524;28;20470;-69
2023/09/23 11:06:58;;;;;;;1.50;1.40;;;19.90;99.90;;;;;;4974923;28;20442;-68
2023/09/23 11:09:26;;;;;;;2.13;1.80;;;20.10;99.90;;;;;;4975403;28;20450;-68
2023/09/23 11:12:12;;;;;;;1.60;1.40;;;20.20;99.90;;;;;;4975782;28;20463;-69
2023/09/23 11:14:44;;;;;;;3.13;1.60;;;20.10;99.90;;;;;;4975290;28;20479;-69
2023/09/23 11:17:25;;;;;;;2.33;1.67;;;20.20;99.90;;;;;;4975450;28;20455;-69
2023/09/23 11:20:13;;;;;;;2.37;1.60;;;20.40;99.90;;;;;;4974241;28;20995;-69
2023/09/23 11:22:43;;;;;;;4.10;3.03;;;20.60;99.90;;;;;;4975212;28;20478;-69
2023/09/23 11:25:11;;;;;;;2.13;1.70;;;20.60;99.90;;;;;;4974995;28;20479;-69
2023/09/23 11:28:00;;;;;;;2.00;1.50;;;20.60;99.90;;;;;;4975041;28;20435;-69
2023/09/23 11:30:43;;;;;;;3.33;1.63;;;20.50;99.90;;;;;;4974431;28;20521;-68
2023/09/23 11:33:11;;;;;;;1.90;1.70;;;20.10;99.90;;;;;;4974392;28;20947;-69
2023/09/23 11:35:40;;;;;;;2.13;1.53;;;19.80;99.90;;;;;;4974699;28;20525;-67
2023/09/23 11:38:09;;;;;;;2.30;2.10;;;19.70;99.90;;;;;;4975281;28;20805;-70
2023/09/23 11:40:56;;;;;;;1.60;1.50;;;19.70;99.90;;;;;;4975557;28;20537;-69
2023/09/23 11:43:24;;;;;;;2.90;1.90;;;19.60;99.90;;;;;;4976412;28;20796;-69
2023/09/23 11:45:51;;;;;;;1.50;1.17;;;19.60;99.90;;;;;;4976533;28;20992;-68
2023/09/23 11:48:21;;;;;;;6.17;1.73;;;19.30;99.90;;;;;;4974421;28;20427;-68
2023/09/23 11:54:10;;;;;;;2.53;1.23;;;19.10;99.90;;;;;;4974720;28;20438;-69
2023/09/23 11:56:37;;;;;;;1.70;1.60;;;19.30;99.90;;;;;;4975409;28;20432;-69
2023/09/23 11:59:23;;;;;;;1.23;1.13;;;19.10;99.90;;;;;;4976427;28;20431;-69
2023/09/23 12:01:50;;;;;;;1.50;1.30;;;19.00;99.90;;;;;;4975579;28;20467;-69
2023/09/23 12:04:17;;;;;;;2.27;1.30;;;18.90;99.90;;;;;;4975786;28;20788;-69
2023/09/23 12:06:48;;;;;;;1.57;1.20;;;18.70;99.90;;;;;;4976806;28;20465;-69
2023/09/23 12:09:17;;;;;;;1.33;1.23;;;18.60;99.90;;;;;;4975175;28;20469;-69
2023/09/23 12:11:44;;;;;;;2.33;1.40;;;18.40;99.90;;;;;;4975281;28;20498;-69
2023/09/23 12:27:25;;;;;;;2.57;1.60;;;18.20;99.90;;;;;;4913203;23;20850;-71
2023/09/23 12:29:53;;;;;;;3.40;1.63;;;18.10;99.90;;;;;;4994618;28;20436;-71
2023/09/23 12:32:20;;;;;;;1.70;1.40;;;18.20;99.90;;;;;;4996017;28;20460;-70
2023/09/23 12:35:14;;;;;;;2.40;1.50;;;18.30;99.90;;;;;;4997315;28;20520;-69
2023/09/23 12:37:42;;;;;;;1.33;1.23;;;18.40;99.90;;;;;;4997402;28;20430;-69
2023/09/23 12:40:10;;;;;;;1.80;1.30;;;18.50;99.90;;;;;;4996989;28;20505;-69
2023/09/23 12:48:03;;;;;;;2.50;1.40;;;18.50;99.90;;;;;;4715130;26;20894;-70
2023/09/23 12:50:40;;;;;;;3.83;1.97;;;18.90;99.90;;;;;;4996686;28;20425;-70
2023/09/23 12:53:07;;;;;;;2.17;1.77;;;18.50;99.90;;;;;;4976654;28;20816;-69
2023/09/23 12:55:34;;;;;;;1.87;1.50;;;18.40;99.90;;;;;;4977268;28;20428;-69
2023/09/23 12:58:01;;;;;;;1.20;1.10;;;18.20;99.90;;;;;;4978386;28;20431;-69
2023/09/23 13:00:32;;;;;;;3.03;1.20;;;18.20;99.90;;;;;;4980900;28;20470;-70
2023/09/23 13:02:59;;;;;;;1.83;1.07;;;18.10;99.90;;;;;;4983029;28;20430;-70
2023/09/23 13:05:36;;;;;;;4.83;2.03;;;18.10;99.90;;;;;;4983383;28;20490;-70
2023/09/23 13:08:05;;;;;;;2.27;2.00;;;18.10;99.90;;;;;;4979358;28;20427;-70
2023/09/23 13:10:33;;;;;;;2.00;1.70;;;;;;;;;;4977737;28;20520;-70
2023/09/23 13:13:06;;;;;;;1.70;1.50;;;18.70;99.90;;;;;;4977018;28;20423;-70
2023/09/23 13:15:34;;;;;;;10.20;2.80;;;19.10;99.90;;;;;;4976723;28;20459;-70
2023/09/23 13:18:02;;;;;;;6.10;2.03;;;19.20;99.90;;;;;;4976479;28;20481;-69
2023/09/23 13:20:52;;;;;;;1.83;1.67;;;19.40;99.90;;;;;;4976827;28;20826;-70
2023/09/23 13:23:22;;;;;;;3.07;1.53;;;19.20;99.90;;;;;;4977223;28;20463;-70
2023/09/23 13:25:49;;;;;;;2.17;1.30;;;19.30;99.90;;;;;;4976735;28;20867;-70
2023/09/23 13:28:23;;;;;;;6.40;1.97;;;19.30;99.90;;;;;;4975947;28;20463;-69
2023/09/23 13:30:51;;;;;;;1.40;1.13;;;19.50;99.90;;;;;;4977344;28;20427;-71
2023/09/23 13:33:21;;;;;;;2.23;1.33;;;19.50;99.90;;;;;;4976155;28;20466;-69
2023/09/23 13:35:52;;;;;;;2.10;1.40;;;19.50;99.90;;;;;;4975965;28;20731;-69
2023/09/23 13:38:19;;;;;;;1.90;1.70;;;19.40;99.90;;;;;;4975876;28;20435;-69
2023/09/23 13:40:46;;;;;;;3.77;1.37;;;19.40;99.90;;;;;;4975727;28;20877;-70
2023/09/23 13:43:14;;;;;;;1.83;1.33;;;19.20;99.90;;;;;;4975344;28;20450;-69
2023/09/23 13:45:42;;;;;;;2.10;1.37;;;19.20;99.90;;;;;;4975923;28;20435;-69
2023/09/23 13:48:21;;;;;;;2.33;1.50;;;19.10;99.90;;;;;;4976375;28;20499;-70
2023/09/23 13:50:48;;;;;;;1.27;1.17;;;19.00;99.90;;;;;;4976044;28;20431;-70
2023/09/23 13:53:17;;;;;;;1.87;1.40;;;19.00;99.90;;;;;;4976076;28;20478;-71
2023/09/23 13:55:49;;;;;;;1.77;1.20;;;19.00;99.90;;;;;;4976150;28;20427;-69
2023/09/23 13:58:16;;;;;;;2.27;2.07;;;19.10;99.90;;;;;;4975862;28;20459;-69
2023/09/23 14:00:43;;;;;;;3.10;1.37;;;19.40;99.90;;;;;;4975589;28;20820;-70
2023/09/23 14:03:10;;;;;;;1.20;1.10;;;19.40;99.90;;;;;;4975082;28;20438;-70
2023/09/23 14:05:37;;;;;;;1.50;1.40;;;19.50;99.90;;;;;;4975407;28;20498;-70
2023/09/23 14:08:05;;;;;;;1.70;1.40;;;19.50;99.90;;;;;;4975658;28;20469;-70
2023/09/23 14:10:36;;;;;;;3.53;1.67;;;19.40;99.90;;;;;;4975589;28;20419;-70
2023/09/23 14:13:11;;;;;;;1.30;1.17;;;19.40;99.90;;;;;;4975403;28;21024;-70
2023/09/23 14:15:39;;;;;;;2.07;1.40;;;19.50;99.90;;;;;;4975608;28;20434;-70
2023/09/23 14:18:06;;;;;;;3.97;2.50;;;19.50;99.90;;;;;;4975719;28;20920;-70
2023/09/23 14:20:43;;;;;;;1.97;1.77;;;19.40;99.90;;;;;;4975251;28;20474;-70
2023/09/23 14:23:20;;;;;;;1.63;1.30;;;19.60;99.90;;;;;;4975459;28;20874;-70
2023/09/23 14:25:48;;;;;;;1.50;1.40;;;19.60;99.90;;;;;;4975043;28;20904;-70
2023/09/23 14:28:15;;;;;;;2.70;1.93;;;19.60;99.90;;;;;;4975288;28;20431;-70
2023/09/23 14:30:43;;;;;;;1.87;1.30;;;19.80;99.90;;;;;;4974893;28;20458;-70